Time;durP1;ratioP1;P1;durP2;ratioP2;P2;SDS_P1;SDS_P2;PMS_P1;PMS_P2;Temp;Humidity;BMP_temperature;BMP_pressure;BME280_temperature;BME280_humidity;BME280_pressure;Samples;Min_cycle;Max_cycle;Signal;HPM_P1;HPM_P2
2021/09/25 00:01:12;;;;;;;;;;;;;;;12.47;83.17;100684.39;1962281;73;20108;-61
2021/09/25 00:03:40;;;;;;;;;;;;;;;12.45;83.17;100663.78;1962411;73;20146;-61
2021/09/25 00:06:08;;;;;;;;;;;;;;;12.45;82.78;100670.38;1962172;73;20104;-61
2021/09/25 00:08:36;;;;;;;;;;;;;;;12.45;82.96;100665.98;1962197;73;20108;-62
2021/09/25 00:11:05;;;;;;;;;;;;;;;12.46;82.45;100654.94;1962283;73;20179;-61
2021/09/25 00:13:32;;;;;;;;;;;;;;;12.46;82.27;100670.79;1962262;73;20416;-62
2021/09/25 00:16:00;;;;;;;;;;;;;;;12.45;83.19;100663.78;1962377;73;20108;-61
2021/09/25 00:18:28;;;;;;;;;;;;;;;12.43;82.94;100665.64;1962388;73;20146;-61
2021/09/25 00:20:56;;;;;;;;;;;;;;;12.44;83.67;100660.77;1962352;73;20099;-61
2021/09/25 00:23:24;;;;;;;;;;;;;;;12.47;84.67;100654.88;1962301;73;20135;-61
2021/09/25 00:25:52;;;;;;;;;;;;;;;12.50;84.82;100644.61;1962410;73;20115;-61
2021/09/25 00:28:20;;;;;;;;;;;;;;;12.51;84.76;100644.55;1962348;73;20151;-61
2021/09/25 00:30:47;;;;;;;;;;;;;;;12.52;85.27;100635.70;1962408;73;20116;-61
2021/09/25 00:33:15;;;;;;;;;;;;;;;12.54;85.07;100636.92;1962379;73;20124;-61
2021/09/25 00:35:43;;;;;;;;;;;;;;;12.54;84.92;100641.77;1962366;73;20112;-62
2021/09/25 00:38:11;;;;;;;;;;;;;;;12.54;84.44;100640.89;1962311;73;20171;-61
2021/09/25 00:40:39;;;;;;;;;;;;;;;12.52;84.01;100642.75;1962394;73;20100;-61
2021/09/25 00:43:07;;;;;;;;;;;;;;;12.51;83.69;100651.14;1962471;73;20139;-61
2021/09/25 00:45:35;;;;;;;;;;;;;;;12.49;83.45;100648.20;1962387;73;20159;-61
2021/09/25 00:48:03;;;;;;;;;;;;;;;12.50;83.24;100651.22;1962312;73;20118;-61
2021/09/25 00:50:31;;;;;;;;;;;;;;;12.49;83.04;100653.01;1962232;73;20120;-62
2021/09/25 00:52:59;;;;;;;;;;;;;;;12.49;82.97;100649.05;1962360;73;20124;-61
2021/09/25 00:55:28;;;;;;;;;;;;;;;12.49;83.03;100648.20;1962375;73;20153;-61
2021/09/25 00:58:00;;;;;;;;;;;;;;;12.49;82.99;100650.84;1962432;73;20112;-61
2021/09/25 01:00:29;;;;;;;;;;;;;;;12.49;83.49;100649.52;1962411;73;20412;-61
2021/09/25 01:02:57;;;;;;;;;;;;;;;12.48;83.74;100647.80;1962369;73;20116;-62
2021/09/25 01:05:25;;;;;;;;;;;;;;;12.48;84.06;100649.12;1962323;73;20217;-61
2021/09/25 01:07:53;;;;;;;;;;;;;;;12.47;83.74;100634.22;1962343;73;20108;-61
2021/09/25 01:10:21;;;;;;;;;;;;;;;12.47;83.35;100635.54;1962375;73;20104;-62
2021/09/25 01:12:49;;;;;;;;;;;;;;;12.46;83.30;100628.06;1962359;73;20142;-62
2021/09/25 01:15:17;;;;;;;;;;;;;;;12.46;83.15;100627.22;1962392;73;20108;-61
2021/09/25 01:17:45;;;;;;;;;;;;;;;12.46;83.03;100621.94;1962307;72;20214;-61
2021/09/25 01:20:13;;;;;;;;;;;;;;;12.45;82.84;100615.80;1962363;73;20112;-61
2021/09/25 01:22:41;;;;;;;;;;;;;;;12.43;83.34;100616.79;1962390;73;20112;-61
2021/09/25 01:25:10;;;;;;;;;;;;;;;12.42;82.85;100616.42;1962372;73;20112;-61
2021/09/25 01:27:38;;;;;;;;;;;;;;;12.41;82.74;100604.13;1962295;73;20124;-61
2021/09/25 01:30:07;;;;;;;;;;;;;;;12.40;82.75;100598.48;1962256;73;20158;-62
2021/09/25 01:32:35;;;;;;;;;;;;;;;12.38;82.69;100596.38;1962273;73;20378;-61
2021/09/25 01:35:03;;;;;;;;;;;;;;;12.35;82.68;100598.21;1962368;73;20108;-61
2021/09/25 01:37:31;;;;;;;;;;;;;;;12.35;82.73;100599.53;1962357;73;20157;-61
2021/09/25 01:40:20;;;;;;;;;;;;;;;12.35;82.86;100597.36;1962550;73;20187;-61
2021/09/25 01:42:49;;;;;;;;;;;;;;;12.33;82.98;100585.55;1962395;73;20244;-61
2021/09/25 01:45:16;;;;;;;;;;;;;;;12.33;82.81;100602.72;1962517;73;20128;-61
2021/09/25 01:47:44;;;;;;;;;;;;;;;12.31;82.82;100600.62;1962584;73;20159;-61
2021/09/25 01:50:13;;;;;;;;;;;;;;;12.31;82.80;100613.81;1962455;73;20120;-61
2021/09/25 01:52:41;;;;;;;;;;;;;;;12.29;82.54;100605.12;1962568;73;20366;-61
2021/09/25 01:55:10;;;;;;;;;;;;;;;12.28;82.49;100607.39;1962480;73;20104;-63
2021/09/25 01:57:38;;;;;;;;;;;;;;;12.26;82.48;100599.98;1962443;73;20123;-61
2021/09/25 02:00:07;;;;;;;;;;;;;;;12.26;83.58;100602.62;1962419;73;20558;-61
2021/09/25 02:02:35;;;;;;;;;;;;;;;12.26;83.14;100604.41;1962482;73;20437;-61
2021/09/25 02:05:03;;;;;;;;;;;;;;;12.23;82.81;100606.75;1962479;73;20140;-61
2021/09/25 02:07:31;;;;;;;;;;;;;;;12.20;82.64;100617.44;1962362;73;20116;-62
2021/09/25 02:09:59;;;;;;;;;;;;;;;12.16;82.46;100621.16;1962437;73;20108;-60
2021/09/25 02:12:27;;;;;;;;;;;;;;;12.13;82.39;100615.55;1962485;73;20104;-61
2021/09/25 02:14:54;;;;;;;;;;;;;;;12.12;82.49;100610.37;1962503;73;20166;-60
2021/09/25 02:17:22;;;;;;;;;;;;;;;12.10;83.49;100618.83;1962418;73;20116;-61
2021/09/25 02:19:50;;;;;;;;;;;;;;;12.09;83.82;100611.82;1962445;73;20138;-60
2021/09/25 02:22:18;;;;;;;;;;;;;;;12.09;83.72;100623.70;1962374;73;20142;-61
2021/09/25 02:24:46;;;;;;;;;;;;;;;12.09;83.62;100631.62;1962460;73;20155;-60
2021/09/25 02:27:14;;;;;;;;;;;;;;;12.07;84.17;100633.48;1962437;73;20119;-61
2021/09/25 02:29:42;;;;;;;;;;;;;;;12.05;84.49;100623.45;1962378;73;20112;-61
2021/09/25 02:32:09;;;;;;;;;;;;;;;12.05;84.56;100622.14;1962462;73;20120;-60
2021/09/25 02:34:37;;;;;;;;;;;;;;;12.03;84.78;100624.00;1962375;73;20100;-62
2021/09/25 02:37:06;;;;;;;;;;;;;;;12.00;84.63;100627.61;1962332;73;20116;-61
2021/09/25 02:39:34;;;;;;;;;;;;;;;12.01;84.96;100642.98;1962387;73;20100;-61
2021/09/25 02:42:03;;;;;;;;;;;;;;;12.03;85.46;100651.23;1962426;73;20131;-61
2021/09/25 02:44:31;;;;;;;;;;;;;;;12.04;85.21;100650.77;1962440;73;20108;-60
2021/09/25 02:46:59;;;;;;;;;;;;;;;12.06;85.05;100656.82;1962442;73;20108;-61
2021/09/25 02:49:27;;;;;;;;;;;;;;;12.07;85.09;100653.27;1962351;73;20195;-61
2021/09/25 02:51:54;;;;;;;;;;;;;;;12.09;85.26;100660.65;1962453;73;20167;-61
2021/09/25 02:54:22;;;;;;;;;;;;;;;12.10;85.39;100654.45;1962421;73;20116;-61
2021/09/25 02:56:50;;;;;;;;;;;;;;;12.10;85.33;100646.06;1962419;73;20124;-61
2021/09/25 02:59:18;;;;;;;;;;;;;;;12.11;84.85;100654.83;1962438;73;20112;-61
2021/09/25 03:01:46;;;;;;;;;;;;;;;12.11;84.53;100653.03;1962471;73;20124;-62
2021/09/25 03:04:14;;;;;;;;;;;;;;;12.12;84.51;100652.59;1962427;73;20141;-61
2021/09/25 03:06:42;;;;;;;;;;;;;;;12.12;84.30;100647.31;1962429;73;20511;-62
2021/09/25 03:09:09;;;;;;;;;;;;;;;12.10;84.17;100639.47;1962417;73;20146;-61
2021/09/25 03:11:37;;;;;;;;;;;;;;;12.09;84.12;100635.10;1962475;73;20111;-60
2021/09/25 03:14:05;;;;;;;;;;;;;;;12.09;84.08;100632.94;1962363;73;20183;-61
2021/09/25 03:16:33;;;;;;;;;;;;;;;12.08;83.87;100630.77;1962291;73;20187;-60
2021/09/25 03:19:01;;;;;;;;;;;;;;;12.08;83.69;100631.21;1962583;73;20143;-61
2021/09/25 03:21:28;;;;;;;;;;;;;;;12.06;83.78;100628.67;1962427;73;20142;-61
2021/09/25 03:23:56;;;;;;;;;;;;;;;12.05;83.75;100626.95;1962442;73;20186;-61
2021/09/25 03:26:24;;;;;;;;;;;;;;;12.05;83.77;100636.66;1962413;73;20143;-61
2021/09/25 03:28:52;;;;;;;;;;;;;;;12.03;83.64;100637.19;1962284;73;20104;-61
2021/09/25 03:31:20;;;;;;;;;;;;;;;12.02;84.50;100638.11;1962393;73;20112;-61
2021/09/25 03:33:48;;;;;;;;;;;;;;;12.00;84.50;100636.85;1962405;73;20108;-61
2021/09/25 03:36:16;;;;;;;;;;;;;;;12.02;84.47;100634.14;1962382;73;20210;-61
2021/09/25 03:38:44;;;;;;;;;;;;;;;12.02;84.54;100632.83;1962506;73;20135;-61
2021/09/25 03:41:12;;;;;;;;;;;;;;;12.03;84.74;100646.43;1963539;73;20112;-61
2021/09/25 03:43:39;;;;;;;;;;;;;;;12.04;84.93;100642.84;1963337;73;20150;-62
2021/09/25 03:46:07;;;;;;;;;;;;;;;12.03;85.25;100653.02;1963354;73;20142;-61
2021/09/25 03:48:35;;;;;;;;;;;;;;;12.02;85.42;100646.87;1963356;73;20163;-61
2021/09/25 03:51:03;;;;;;;;;;;;;;;12.01;85.24;100643.86;1963428;73;20115;-61
2021/09/25 03:53:31;;;;;;;;;;;;;;;12.02;84.90;100652.62;1963379;73;20116;-61
2021/09/25 03:56:00;;;;;;;;;;;;;;;12.01;84.65;100663.65;1963334;73;20159;-62
2021/09/25 03:58:27;;;;;;;;;;;;;;;11.99;84.47;100669.46;1963480;73;20112;-61
2021/09/25 04:00:55;;;;;;;;;;;;;;;11.98;84.41;100665.95;1963368;73;20159;-61
2021/09/25 04:03:23;;;;;;;;;;;;;;;11.96;84.25;100664.31;1963374;73;20104;-61
2021/09/25 04:05:51;;;;;;;;;;;;;;;11.93;84.10;100671.92;1963322;73;20100;-61
2021/09/25 04:08:19;;;;;;;;;;;;;;;11.92;83.95;100679.43;1963340;73;20116;-60
2021/09/25 04:10:47;;;;;;;;;;;;;;;11.90;83.87;100680.44;1963401;72;20178;-61
2021/09/25 04:13:15;;;;;;;;;;;;;;;11.90;83.89;100690.52;1963386;73;20178;-61
2021/09/25 04:15:43;;;;;;;;;;;;;;;11.91;83.79;100692.22;1963399;73;20112;-61
2021/09/25 04:18:10;;;;;;;;;;;;;;;11.92;83.74;100689.14;1963341;73;20116;-61
2021/09/25 04:20:39;;;;;;;;;;;;;;;11.93;83.66;100694.79;1963339;73;20116;-61
2021/09/25 04:23:07;;;;;;;;;;;;;;;11.94;83.73;100703.95;1963241;73;20119;-61
2021/09/25 04:25:34;;;;;;;;;;;;;;;11.94;83.67;100714.98;1963390;73;20117;-61
2021/09/25 04:28:09;;;;;;;;;;;;;;;11.95;83.83;100720.20;1963365;72;20146;-60
2021/09/25 04:30:34;;;;;;;;;;;;;;;11.95;83.87;100728.12;1962753;72;20170;-60
2021/09/25 04:33:02;;;;;;;;;;;;;;;11.97;83.80;100728.91;1963349;73;20417;-61
2021/09/25 04:35:30;;;;;;;;;;;;;;;11.98;83.61;100733.23;1963319;73;20139;-62
2021/09/25 04:37:57;;;;;;;;;;;;;;;12.03;83.43;100738.80;1963333;73;20155;-61
2021/09/25 04:40:25;;;;;;;;;;;;;;;12.09;83.58;100742.47;1963240;72;20165;-61
2021/09/25 04:42:53;;;;;;;;;;;;;;;12.16;83.84;100743.91;1963329;73;20146;-61
2021/09/25 04:45:21;;;;;;;;;;;;;;;12.22;83.82;100744.93;1963349;73;20103;-61
2021/09/25 04:47:50;;;;;;;;;;;;;;;12.26;83.73;100745.17;1963327;73;20186;-61
2021/09/25 04:50:19;;;;;;;;;;;;;;;12.33;83.61;100748.41;1963170;73;20462;-61
2021/09/25 04:52:47;;;;;;;;;;;;;;;12.35;83.49;100755.31;1963318;73;20112;-61
2021/09/25 04:55:14;;;;;;;;;;;;;;;12.39;83.23;100759.14;1963328;73;20115;-61
2021/09/25 04:57:42;;;;;;;;;;;;;;;12.40;83.15;100759.55;1963318;73;20100;-61
2021/09/25 05:00:10;;;;;;;;;;;;;;;12.41;83.13;100760.77;1963346;73;20116;-60
2021/09/25 05:02:38;;;;;;;;;;;;;;;12.41;83.25;100762.56;1963402;73;20138;-61
2021/09/25 05:05:07;;;;;;;;;;;;;;;12.42;83.03;100762.97;1963497;73;20230;-61
2021/09/25 05:07:36;;;;;;;;;;;;;;;12.44;82.89;100761.96;1963467;73;20111;-60
2021/09/25 05:10:04;;;;;;;;;;;;;;;12.44;82.81;100765.08;1963448;73;20354;-60
2021/09/25 05:12:32;;;;;;;;;;;;;;;12.44;82.81;100771.67;1963472;73;20116;-60
2021/09/25 05:14:59;;;;;;;;;;;;;;;12.42;82.78;100769.10;1963458;73;20111;-60
2021/09/25 05:17:32;;;;;;;;;;;;;;;12.42;82.70;100777.49;1963398;73;20120;-60
2021/09/25 05:19:57;;;;;;;;;;;;;;;12.41;82.82;100776.61;1962992;73;20111;-61
2021/09/25 05:22:25;;;;;;;;;;;;;;;12.39;82.76;100775.83;1963492;73;20116;-61
2021/09/25 05:24:52;;;;;;;;;;;;;;;12.41;82.70;100779.73;1963510;73;20111;-61
2021/09/25 05:27:20;;;;;;;;;;;;;;;12.40;82.70;100780.67;1963466;73;20121;-61
2021/09/25 05:29:48;;;;;;;;;;;;;;;12.42;82.52;100782.30;1963370;73;20138;-61
2021/09/25 05:32:16;;;;;;;;;;;;;;;12.48;82.61;100779.84;1963469;73;20112;-61
2021/09/25 05:34:44;;;;;;;;;;;;;;;12.49;82.62;100782.89;1963549;73;20138;-61
2021/09/25 05:37:14;;;;;;;;;;;;;;;12.49;82.59;100779.78;1963475;73;20119;-61
2021/09/25 05:39:42;;;;;;;;;;;;;;;12.51;82.56;100781.03;1963450;72;20112;-61
2021/09/25 05:42:10;;;;;;;;;;;;;;;12.57;82.50;100775.45;1963398;73;20144;-61
2021/09/25 05:44:37;;;;;;;;;;;;;;;12.62;82.78;100773.93;1963428;73;20179;-61
2021/09/25 05:47:05;;;;;;;;;;;;;;;12.64;82.85;100779.52;1963455;73;20221;-61
2021/09/25 05:52:21;;;;;;;;;;;;;;;12.67;82.93;100781.16;1971356;72;20386;-61
2021/09/25 05:54:49;;;;;;;;;;;;;;;12.79;82.66;100790.30;1971291;73;20107;-62
2021/09/25 05:57:17;;;;;;;;;;;;;;;13.01;82.44;100782.20;1971393;73;20155;-61
2021/09/25 05:59:45;;;;;;;;;;;;;;;13.21;81.93;100782.55;1971388;73;20199;-61
2021/09/25 06:02:13;;;;;;;;;;;;;;;13.58;81.63;100782.06;1971394;73;20112;-61
2021/09/25 06:04:40;;;;;;;;;;;;;;;13.99;81.55;100783.03;1971402;73;20116;-61
2021/09/25 06:07:13;;;;;;;;;;;;;;;14.04;80.70;100783.17;1971387;73;20123;-61
2021/09/25 06:09:41;;;;;;;;;;;;;;;13.98;80.46;100785.27;1971351;73;20104;-61
2021/09/25 06:12:10;;;;;;;;;;;;;;;13.90;80.24;100789.65;1971468;73;20111;-61
2021/09/25 06:14:38;;;;;;;;;;;;;;;13.87;80.16;100785.38;1971371;73;20141;-61
2021/09/25 06:17:06;;;;;;;;;;;;;;;14.02;80.08;100792.14;1971384;73;20151;-61
2021/09/25 06:19:33;;;;;;;;;;;;;;;14.41;80.01;100790.95;1971371;73;20103;-61
2021/09/25 06:22:01;;;;;;;;;;;;;;;15.51;79.46;100796.27;1971308;73;20142;-61
2021/09/25 06:24:29;;;;;;;;;;;;;;;16.81;78.76;100808.70;1971376;73;20099;-60
2021/09/25 06:26:57;;;;;;;;;;;;;;;18.02;77.46;100803.84;1971287;71;20116;-61
2021/09/25 06:29:25;;;;;;;;;;;;;;;18.81;73.70;100800.50;1971394;73;20127;-60
2021/09/25 06:31:53;;;;;;;;;;;;;;;19.57;73.64;100805.11;1971380;73;20111;-60
2021/09/25 06:34:22;;;;;;;;;;;;;;;20.20;70.96;100806.11;1971480;73;20108;-61
2021/09/25 06:36:50;;;;;;;;;;;;;;;20.57;67.93;100803.19;1971378;73;20141;-61
2021/09/25 06:39:18;;;;;;;;;;;;;;;21.13;68.48;100807.10;1971369;73;20104;-60
2021/09/25 06:41:46;;;;;;;;;;;;;;;21.53;65.75;100799.80;1971379;73;20115;-60
2021/09/25 06:44:16;;;;;;;;;;;;;;;22.11;66.07;100802.02;1971411;73;20166;-61
2021/09/25 06:46:43;;;;;;;;;;;;;;;22.80;62.10;100804.48;1971392;73;20103;-61
2021/09/25 06:49:11;;;;;;;;;;;;;;;22.21;64.76;100811.94;1971305;73;20099;-60
2021/09/25 06:51:39;;;;;;;;;;;;;;;22.04;63.37;100808.02;1972464;72;20135;-61
2021/09/25 06:54:07;;;;;;;;;;;;;;;22.69;63.93;100807.28;1973958;73;20393;-61
2021/09/25 06:56:35;;;;;;;;;;;;;;;23.31;59.68;100804.80;1973712;73;20173;-60
2021/09/25 06:59:03;;;;;;;;;;;;;;;23.91;60.12;100808.30;1973663;73;20163;-61
2021/09/25 07:01:32;;;;;;;;;;;;;;;24.45;58.44;100813.42;1973644;73;20135;-61
2021/09/25 07:04:00;;;;;;;;;;;;;;;24.33;56.72;100815.94;1973783;73;20131;-60
2021/09/25 07:06:28;;;;;;;;;;;;;;;24.74;57.04;100819.20;1973687;73;20397;-60
2021/09/25 07:08:56;;;;;;;;;;;;;;;25.15;55.87;100818.29;1973734;73;20171;-60
2021/09/25 07:11:26;;;;;;;;;;;;;;;25.41;54.48;100815.19;1951240;73;20119;-58
2021/09/25 07:13:54;;;;;;;;;;;;;;;24.55;53.50;100823.69;1956935;73;20108;-60
2021/09/25 07:16:21;;;;;;;;;;;;;;;23.32;54.28;100826.63;1957157;73;20108;-58
2021/09/25 07:18:49;;;;;;;;;;;;;;;23.82;53.62;100830.17;1956951;73;20213;-59
2021/09/25 07:21:17;;;;;;;;;;;;;;;24.27;51.37;100835.73;1956966;73;20116;-58
2021/09/25 07:23:45;;;;;;;;;;;;;;;24.85;50.97;100835.98;1956990;73;20142;-58
2021/09/25 07:26:12;;;;;;;;;;;;;;;24.94;47.46;100836.09;1956886;73;20120;-58
2021/09/25 07:28:40;;;;;;;;;;;;;;;24.71;46.28;100841.87;1957016;73;20143;-58
2021/09/25 07:31:09;;;;;;;;;;;;;;;24.55;47.26;100845.22;1956980;73;20108;-58
2021/09/25 07:33:37;;;;;;;;;;;;;;;24.45;46.94;100844.37;1957086;73;20112;-58
2021/09/25 07:36:06;;;;;;;;;;;;;;;24.34;47.45;100851.28;1956999;73;20117;-58
2021/09/25 07:38:33;;;;;;;;;;;;;;;23.31;47.78;100855.84;1957075;73;20409;-58
2021/09/25 07:41:02;;;;;;;;;;;;;;;23.70;47.49;100846.94;1956921;73;20116;-58
2021/09/25 07:43:30;;;;;;;;;;;;;;;24.31;47.58;100859.16;1956942;73;20100;-58
2021/09/25 07:45:58;;;;;;;;;;;;;;;24.88;46.75;100857.75;1956955;73;20140;-58
2021/09/25 07:48:26;;;;;;;;;;;;;;;24.80;45.21;100855.78;1956945;73;20108;-58
2021/09/25 07:50:54;;;;;;;;;;;;;;;23.61;47.61;100859.86;1956954;73;20120;-58
2021/09/25 07:53:22;;;;;;;;;;;;;;;23.26;48.06;100863.97;1956947;73;20108;-57
2021/09/25 07:55:50;;;;;;;;;;;;;;;23.67;47.54;100868.72;1956873;73;20398;-58
2021/09/25 07:58:18;;;;;;;;;;;;;;;23.49;45.91;100870.75;1956962;73;20138;-58
2021/09/25 08:00:46;;;;;;;;;;;;;;;22.65;48.36;100875.14;1956970;73;20112;-58
2021/09/25 08:03:14;;;;;;;;;;;;;;;21.99;49.28;100871.43;1957202;73;20108;-60
2021/09/25 08:05:42;;;;;;;;;;;;;;;22.39;49.28;100879.23;1957023;73;20150;-58
2021/09/25 08:08:10;;;;;;;;;;;;;;;21.72;49.95;100889.34;1957023;73;20139;-59
2021/09/25 08:10:38;;;;;;;;;;;;;;;21.03;50.94;100887.82;1944170;73;20217;-58
2021/09/25 08:13:06;;;;;;;;;;;;;;;20.51;51.85;100899.95;1922093;75;20111;-58
2021/09/25 08:15:34;;;;;;;;;;;;;;;20.95;51.88;100895.60;1922083;75;20123;-58
2021/09/25 08:18:02;;;;;;;;;;;;;;;22.66;50.00;100892.92;1922103;75;20224;-58
2021/09/25 08:20:29;;;;;;;;;;;;;;;24.35;48.34;100898.73;1922107;75;20147;-58
2021/09/25 08:22:57;;;;;;;;;;;;;;;24.42;47.83;100903.38;1922166;75;20114;-58
2021/09/25 08:25:25;;;;;;;;;;;;;;;23.46;48.91;100914.05;1922123;75;20114;-58
2021/09/25 08:27:53;;;;;;;;;;;;;;;22.81;50.36;100914.04;1922133;75;20111;-58
2021/09/25 08:30:24;;;;;;;;;;;;;;;22.47;51.20;100923.70;1922065;75;20157;-58
2021/09/25 08:32:50;;;;;;;;;;;;;;;22.41;51.12;100924.22;1922073;75;20158;-58
2021/09/25 08:35:18;;;;;;;;;;;;;;;21.77;52.04;100926.84;1922023;75;20153;-58
2021/09/25 08:37:46;;;;;;;;;;;;;;;21.14;52.85;100933.81;1922182;75;20702;-58
2021/09/25 08:40:14;;;;;;;;;;;;;;;20.65;53.42;100942.56;1922378;75;20115;-58
2021/09/25 08:42:42;;;;;;;;;;;;;;;20.32;53.89;100937.48;1922224;75;20149;-61
2021/09/25 08:45:10;;;;;;;;;;;;;;;20.15;53.98;100944.63;1922227;75;20125;-60
2021/09/25 08:47:38;;;;;;;;;;;;;;;19.92;54.33;100941.87;1922230;75;20118;-60
2021/09/25 08:50:08;;;;;;;;;;;;;;;19.67;54.76;100954.34;1922166;75;20114;-61
2021/09/25 08:52:36;;;;;;;;;;;;;;;19.40;55.22;100960.38;1922206;75;20377;-60
2021/09/25 08:55:04;;;;;;;;;;;;;;;19.12;55.58;100962.86;1922218;75;20115;-61
2021/09/25 08:57:32;;;;;;;;;;;;;;;18.75;56.10;100956.94;1922231;75;20173;-60
2021/09/25 09:00:18;;;;;;;;;;;;;;;18.40;56.65;100961.56;1922224;75;20114;-60
2021/09/25 09:02:45;;;;;;;;;;;;;;;18.18;57.12;100973.31;1922297;75;20261;-60
2021/09/25 09:05:15;;;;;;;;;;;;;;;19.06;57.02;100977.49;1922223;75;20118;-60
2021/09/25 09:07:44;;;;;;;;;;;;;;;20.67;54.79;100980.74;1919859;75;20149;-60
2021/09/25 09:10:12;;;;;;;;;;;;;;;21.18;53.95;100986.13;1922360;75;20166;-60
2021/09/25 09:12:40;;;;;;;;;;;;;;;22.57;52.49;100986.81;1922154;73;20150;-61
2021/09/25 09:15:08;;;;;;;;;;;;;;;23.35;51.98;100996.13;1887629;76;20143;-60
2021/09/25 09:17:36;;;;;;;;;;;;;;;22.63;51.77;101022.03;1887552;76;20117;-61
2021/09/25 09:20:11;;;;;;;;;;;;;;;21.15;51.31;101021.17;1887675;76;20116;-61
2021/09/25 09:22:38;;;;;;;;;;;;;;;19.82;52.62;101029.87;1887662;76;20128;-61
2021/09/25 09:25:07;;;;;;;;;;;;;;;18.83;54.18;101028.00;1887696;76;20116;-61
2021/09/25 09:27:35;;;;;;;;;;;;;;;18.18;55.29;101033.27;1887067;76;20116;-64
2021/09/25 09:30:10;;;;;;;;;;;;;;;17.73;56.31;101031.67;1887319;76;20191;-63
2021/09/25 09:32:39;;;;;;;;;;;;;;;17.42;57.04;101032.78;1887645;76;20344;-67
2021/09/25 09:35:11;;;;;;;;;;;;;;;17.25;57.42;101030.34;1887621;76;20390;-66
2021/09/25 09:37:39;;;;;;;;;;;;;;;17.09;58.27;101033.08;1887608;76;20410;-73
2021/09/25 09:40:08;;;;;;;;;;;;;;;16.81;59.49;101037.39;1870719;77;20100;-70
2021/09/25 09:42:45;;;;;;;;;;;;;;;16.68;59.79;101041.27;1921295;75;20220;-73
2021/09/25 09:45:13;;;;;;;;;;;;;;;16.71;60.11;101038.44;1933693;74;20102;-75
2021/09/25 09:47:45;;;;;;;;;;;;;;;16.73;60.31;101039.67;1922064;75;20161;-70
2021/09/25 09:50:14;;;;;;;;;;;;;;;17.54;60.00;101037.82;1922111;75;20474;-67
2021/09/25 09:52:42;;;;;;;;;;;;;;;19.13;57.91;101032.15;1921851;75;20239;-74
2021/09/25 09:55:11;;;;;;;;;;;;;;;20.63;54.72;101040.81;1922197;75;20102;-61
2021/09/25 09:57:39;;;;;;;;;;;;;;;21.72;54.42;101029.55;1892268;75;20151;-61
2021/09/25 10:00:08;;;;;;;;;;;;;;;22.90;53.32;101025.98;1854241;77;20122;-62
2021/09/25 10:02:37;;;;;;;;;;;;;;;23.71;52.60;101036.29;1916259;75;20153;-61
2021/09/25 10:05:05;;;;;;;;;;;;;;;23.30;52.71;101030.59;1922066;75;20393;-64
2021/09/25 10:07:33;;;;;;;;;;;;;;;22.67;53.55;101034.20;1922132;75;20098;-65
2021/09/25 10:10:01;;;;;;;;;;;;;;;21.81;54.80;101037.33;1922134;75;20166;-64
2021/09/25 10:12:31;;;;;;;;;;;;;;;20.89;54.83;101033.44;1925685;72;20197;-66
2021/09/25 10:14:59;;;;;;;;;;;;;;;20.14;55.44;101051.17;1928265;74;20110;-66
2021/09/25 10:17:27;;;;;;;;;;;;;;;19.65;56.45;101057.78;1928169;74;20122;-67
2021/09/25 10:19:55;;;;;;;;;;;;;;;19.18;56.85;101058.04;1893161;76;20183;-63
2021/09/25 10:22:24;;;;;;;;;;;;;;;18.92;57.41;101058.98;1928171;74;20114;-64
2021/09/25 10:24:59;;;;;;;;;;;;;;;19.50;57.42;101056.72;1928282;74;20157;-63
2021/09/25 10:27:28;;;;;;;;;;;;;;;20.74;55.44;101054.22;1927384;74;20106;-63
2021/09/25 10:29:56;;;;;;;;;;;;;;;22.02;54.02;101051.28;1893151;76;20120;-64
2021/09/25 10:32:25;;;;;;;;;;;;;;;22.10;50.78;101045.66;1927981;74;20188;-65
2021/09/25 10:34:55;;;;;;;;;;;;;;;22.44;50.59;101046.87;1928300;74;20110;-64
2021/09/25 10:37:23;;;;;;;;;;;;;;;23.01;49.72;101056.78;1927942;74;20376;-65
2021/09/25 10:39:52;;;;;;;;;;;;;;;23.28;48.60;101051.38;1893215;76;20120;-63
2021/09/25 10:42:21;;;;;;;;;;;;;;;23.25;47.34;101050.30;1926752;74;20207;-64
2021/09/25 10:44:50;;;;;;;;;;;;;;;23.33;47.66;101063.89;1928189;74;20122;-64
2021/09/25 10:47:19;;;;;;;;;;;;;;;23.58;47.58;101071.14;1927989;74;20414;-64
2021/09/25 10:49:51;;;;;;;;;;;;;;;23.79;47.05;101071.05;1893192;76;20404;-64
2021/09/25 10:52:21;;;;;;;;;;;;;;;23.85;45.96;101082.15;1927617;74;20106;-63
2021/09/25 10:54:50;;;;;;;;;;;;;;;23.50;46.34;101078.55;1928405;74;20381;-63
2021/09/25 10:57:18;;;;;;;;;;;;;;;23.12;47.17;101077.37;1908646;75;20499;-64
2021/09/25 10:59:57;;;;;;;;;;;;;;;22.74;46.07;101081.02;1884227;76;20188;-64
2021/09/25 11:02:32;;;;;;;;;;;;;;;22.12;46.40;101087.09;1916209;74;20114;-64
2021/09/25 11:05:00;;;;;;;;;;;;;;;21.11;46.96;101086.16;1921149;74;20118;-63
2021/09/25 11:07:37;;;;;;;;;;;;;;;20.92;48.50;101089.92;1927974;74;20101;-63
2021/09/25 11:10:05;;;;;;;;;;;;;;;21.62;48.53;101095.59;1893180;76;20124;-63
2021/09/25 11:12:34;;;;;;;;;;;;;;;22.22;47.63;101100.09;1927809;74;20122;-63
2021/09/25 11:15:03;;;;;;;;;;;;;;;22.04;48.15;101101.61;1894443;76;20171;-64
2021/09/25 11:17:31;;;;;;;;;;;;;;;21.40;48.96;101101.78;1934664;74;20102;-63
2021/09/25 11:20:07;;;;;;;;;;;;;;;20.82;50.10;101109.36;1891139;76;20120;-63
2021/09/25 11:22:36;;;;;;;;;;;;;;;20.87;50.97;101106.81;1934837;74;20114;-63
2021/09/25 11:25:12;;;;;;;;;;;;;;;21.26;50.99;101104.19;1891004;76;20120;-63
2021/09/25 11:27:41;;;;;;;;;;;;;;;21.46;50.42;101104.48;1934712;74;20146;-63
2021/09/25 11:30:26;;;;;;;;;;;;;;;21.19;49.41;101107.85;1894305;76;20120;-62
2021/09/25 11:32:55;;;;;;;;;;;;;;;20.82;49.95;101104.47;1891121;76;20390;-62
2021/09/25 11:35:24;;;;;;;;;;;;;;;20.47;50.24;101116.48;1914303;75;20153;-62
2021/09/25 11:37:59;;;;;;;;;;;;;;;20.27;49.91;101114.82;1917416;75;20142;-62
2021/09/25 11:40:28;;;;;;;;;;;;;;;19.89;50.17;101133.16;1917962;75;20361;-62
2021/09/25 11:43:00;;;;;;;;;;;;;;;19.51;50.26;101132.70;1917947;75;20141;-63
2021/09/25 11:45:30;;;;;;;;;;;;;;;19.24;51.08;101136.35;1917912;75;20181;-64
2021/09/25 11:47:59;;;;;;;;;;;;;;;19.07;51.32;101141.98;1917548;75;20142;-64
2021/09/25 11:50:27;;;;;;;;;;;;;;;18.93;51.79;101140.75;1917961;75;20149;-66
2021/09/25 11:52:57;;;;;;;;;;;;;;;18.82;51.94;101143.66;1886897;75;20237;-68
2021/09/25 11:55:25;;;;;;;;;;;;;;;18.74;52.17;101146.42;1885206;75;20148;-68
2021/09/25 11:57:57;;;;;;;;;;;;;;;18.56;52.46;101145.37;1885571;75;20207;-70
2021/09/25 12:00:27;;;;;;;;;;;;;;;18.48;52.83;101151.67;1885362;76;20159;-70
2021/09/25 12:02:56;;;;;;;;;;;;;;;18.54;52.91;101163.28;1916466;75;20141;-67
2021/09/25 12:05:25;;;;;;;;;;;;;;;18.65;52.95;101158.09;1917915;75;20381;-70
2021/09/25 12:07:54;;;;;;;;;;;;;;;18.76;53.06;101164.05;1885230;75;20370;-71
2021/09/25 12:10:22;;;;;;;;;;;;;;;18.71;53.20;101159.50;1883446;76;20230;-63
2021/09/25 12:15:40;;;;;;;;;;;;;;;18.37;53.32;101167.06;1929657;74;20379;-71
2021/09/25 12:18:15;;;;;;;;;;;;;;;18.29;53.62;101177.35;1895169;76;20421;-73
2021/09/25 12:20:44;;;;;;;;;;;;;;;18.26;53.88;101180.20;1959668;73;20397;-71
2021/09/25 12:23:13;;;;;;;;;;;;;;;18.20;54.13;101184.61;1929031;73;20117;-62
2021/09/25 12:25:41;;;;;;;;;;;;;;;18.08;54.46;101189.77;1932203;73;20195;-63
2021/09/25 12:28:27;;;;;;;;;;;;;;;17.99;54.71;101185.02;1965115;73;20099;-62
2021/09/25 12:30:56;;;;;;;;;;;;;;;17.92;55.04;101189.02;1964475;73;20252;-64
2021/09/25 12:33:24;;;;;;;;;;;;;;;17.76;55.15;101194.41;1961035;73;20163;-62
2021/09/25 12:35:59;;;;;;;;;;;;;;;17.73;55.19;101198.12;1961504;73;20108;-63
2021/09/25 12:38:29;;;;;;;;;;;;;;;17.81;55.65;101196.31;1965132;73;20103;-66
2021/09/25 12:41:07;;;;;;;;;;;;;;;17.96;55.43;101195.86;1964493;73;20202;-63
2021/09/25 12:43:36;;;;;;;;;;;;;;;18.17;55.11;101196.33;1961010;73;20138;-64
2021/09/25 12:46:09;;;;;;;;;;;;;;;18.31;54.79;101200.77;1958333;73;20394;-62
2021/09/25 12:48:38;;;;;;;;;;;;;;;18.42;54.47;101196.92;1944955;74;20117;-62